createdAt,value
2022-09-07T00:00:24.482Z,14.40
2022-09-07T00:01:28.770Z,12.38
2022-09-07T00:02:31.001Z,11.63
2022-09-07T00:03:34.459Z,12.25
2022-09-07T00:04:36.738Z,11.90
2022-09-07T00:05:46.653Z,12.25
2022-09-07T00:06:55.262Z,11.63
2022-09-07T00:07:58.612Z,12.52
2022-09-07T00:09:02.945Z,12.32
2022-09-07T00:10:05.445Z,12.50
2022-09-07T00:11:12.666Z,11.77
2022-09-07T00:12:14.931Z,12.57
2022-09-07T00:13:17.121Z,12.40
2022-09-07T00:14:19.314Z,12.68
2022-09-07T00:15:21.617Z,13.50
2022-09-07T00:16:28.025Z,12.52
2022-09-07T00:17:30.316Z,12.48
2022-09-07T00:18:32.531Z,12.90
2022-09-07T00:19:34.716Z,12.50
2022-09-07T00:20:36.903Z,12.45
2022-09-07T00:21:39.192Z,12.40
2022-09-07T00:22:45.715Z,12.13
2022-09-07T00:23:49.428Z,12.48
2022-09-07T00:24:51.603Z,12.43
2022-09-07T00:25:54.300Z,12.02
2022-09-07T00:26:56.762Z,12.85
2022-09-07T00:28:02.393Z,12.75
2022-09-07T00:29:04.752Z,12.55
2022-09-07T00:30:07.754Z,13.43
2022-09-07T00:31:12.836Z,12.38
2022-09-07T00:32:15.239Z,12.07
2022-09-07T00:33:17.502Z,11.93
2022-09-07T00:34:19.697Z,12.00
2022-09-07T00:35:21.891Z,12.43
2022-09-07T00:36:24.171Z,12.80
2022-09-07T00:37:26.427Z,12.45
2022-09-07T00:38:28.681Z,12.45
2022-09-07T00:39:31.035Z,12.75
2022-09-07T00:40:33.268Z,13.45
2022-09-07T00:41:35.605Z,13.23
2022-09-07T00:42:37.838Z,12.10
2022-09-07T00:43:46.967Z,13.43
2022-09-07T00:45:14.817Z,12.90
2022-09-07T00:46:20.289Z,12.20
2022-09-07T00:47:41.994Z,12.68
2022-09-07T00:48:56.813Z,12.70
2022-09-07T00:50:05.427Z,13.73
2022-09-07T00:51:13.325Z,12.20
2022-09-07T00:52:18.977Z,12.88
2022-09-07T00:53:28.586Z,12.80
2022-09-07T00:54:36.945Z,12.43
2022-09-07T00:55:41.306Z,12.35
2022-09-07T00:56:45.240Z,12.38
2022-09-07T00:57:52.927Z,13.30
2022-09-07T00:58:56.408Z,12.65
2022-09-07T00:59:59.207Z,13.30
2022-09-07T01:01:02.164Z,12.93
2022-09-07T01:02:05.517Z,12.18
2022-09-07T01:03:10.915Z,12.70
2022-09-07T01:04:14.263Z,12.82
2022-09-07T01:05:27.026Z,13.38
2022-09-07T01:06:32.707Z,12.35
2022-09-07T01:07:35.139Z,12.55
2022-09-07T01:08:38.077Z,13.48
2022-09-07T01:09:40.753Z,13.20
2022-09-07T01:10:44.289Z,12.85
2022-09-07T01:11:51.118Z,13.13
2022-09-07T01:12:53.924Z,12.35
2022-09-07T01:13:58.234Z,12.30
2022-09-07T01:15:00.706Z,12.50
2022-09-07T01:16:35.939Z,12.77
2022-09-07T01:18:00.954Z,12.32
2022-09-07T01:19:32.129Z,12.50
2022-09-07T01:21:00.780Z,12.38
2022-09-07T01:22:19.763Z,12.65
2022-09-07T01:23:43.370Z,12.68
2022-09-07T01:25:11.047Z,11.70
2022-09-07T01:26:31.689Z,12.52
2022-09-07T01:28:05.511Z,12.35
2022-09-07T01:29:27.588Z,11.77
2022-09-07T01:30:34.919Z,13.13
2022-09-07T01:31:46.077Z,12.82
2022-09-07T01:33:15.209Z,13.30
2022-09-07T01:34:23.789Z,12.65
2022-09-07T01:35:52.573Z,13.30
2022-09-07T01:37:34.745Z,13.00
2022-09-07T01:39:06.414Z,12.73
2022-09-07T01:40:14.409Z,12.60
2022-09-07T01:41:23.493Z,12.63
2022-09-07T01:42:36.113Z,12.45
2022-09-07T01:43:59.630Z,12.75
2022-09-07T01:45:04.487Z,12.82
2022-09-07T01:46:14.202Z,12.77
2022-09-07T01:47:42.533Z,13.43
2022-09-07T01:48:48.640Z,12.48
2022-09-07T01:50:16.589Z,12.50
2022-09-07T01:51:21.805Z,12.88
2022-09-07T01:52:59.021Z,12.52
2022-09-07T01:54:10.766Z,12.25
2022-09-07T01:55:26.615Z,12.43
2022-09-07T01:56:36.636Z,12.32
2022-09-07T01:57:50.435Z,11.88
2022-09-07T01:58:58.357Z,12.25
2022-09-07T02:00:13.821Z,12.95
2022-09-07T02:01:28.781Z,12.73
2022-09-07T02:02:38.849Z,11.90
2022-09-07T02:03:49.683Z,13.32
2022-09-07T02:05:02.181Z,13.02
2022-09-07T02:06:18.841Z,12.80
2022-09-07T02:07:39.396Z,13.10
2022-09-07T02:08:51.251Z,12.52
2022-09-07T02:10:20.570Z,12.23
2022-09-07T02:11:36.981Z,12.57
2022-09-07T02:13:12.334Z,13.73
2022-09-07T02:14:30.645Z,13.70
2022-09-07T02:15:56.296Z,12.98
2022-09-07T02:17:17.286Z,14.32
2022-09-07T02:18:21.652Z,13.48
2022-09-07T02:19:26.909Z,13.50
2022-09-07T02:20:33.733Z,13.82
2022-09-07T02:21:41.512Z,13.52
2022-09-07T02:22:49.380Z,13.90
2022-09-07T02:23:56.182Z,12.85
2022-09-07T02:25:02.417Z,12.70
2022-09-07T02:26:10.448Z,13.85
2022-09-07T02:27:19.497Z,13.85
2022-09-07T02:28:29.330Z,13.25
2022-09-07T02:29:32.324Z,13.23
2022-09-07T02:30:34.743Z,12.85
2022-09-07T02:31:37.015Z,12.68
2022-09-07T02:32:39.545Z,13.05
2022-09-07T02:33:42.696Z,12.82
2022-09-07T02:34:46.247Z,12.60
2022-09-07T02:35:48.441Z,11.95
2022-09-07T02:36:52.416Z,12.77
2022-09-07T02:37:55.163Z,12.77
2022-09-07T02:38:57.387Z,12.55
2022-09-07T02:40:01.595Z,13.10
2022-09-07T02:41:05.075Z,12.77
2022-09-07T02:42:07.449Z,12.30
2022-09-07T02:43:11.633Z,12.32
2022-09-07T02:44:36.206Z,12.07
2022-09-07T02:45:56.199Z,12.57
2022-09-07T02:47:09.774Z,12.77
2022-09-07T02:48:29.298Z,12.23
2022-09-07T02:49:44.251Z,12.57
2022-09-07T02:50:56.416Z,12.23
2022-09-07T02:52:25.877Z,12.32
2022-09-07T02:53:53.759Z,12.20
2022-09-07T02:55:11.103Z,12.18
2022-09-07T02:56:28.551Z,11.93
2022-09-07T02:57:58.424Z,13.15
2022-09-07T02:59:39.123Z,12.60
2022-09-07T03:00:56.766Z,12.15
2022-09-07T03:02:14.256Z,13.18
2022-09-07T03:03:54.715Z,11.90
2022-09-07T03:05:19.872Z,12.52
2022-09-07T03:06:38.436Z,11.85
2022-09-07T03:07:54.636Z,12.30
2022-09-07T03:09:01.642Z,11.90
2022-09-07T03:10:06.844Z,12.55
2022-09-07T03:11:09.199Z,13.57
2022-09-07T03:12:12.640Z,12.85
2022-09-07T03:13:22.697Z,12.90
2022-09-07T03:14:26.382Z,13.00
2022-09-07T03:15:28.765Z,13.07
2022-09-07T03:16:30.947Z,12.90
2022-09-07T03:17:33.142Z,13.15
2022-09-07T03:18:35.304Z,12.63
2022-09-07T03:19:37.878Z,12.25
2022-09-07T03:20:40.073Z,12.40
2022-09-07T03:21:42.766Z,13.00
2022-09-07T03:22:46.788Z,13.18
2022-09-07T03:23:51.856Z,12.35
2022-09-07T03:24:54.222Z,13.40
2022-09-07T03:25:56.484Z,12.48
2022-09-07T03:26:58.796Z,13.15
2022-09-07T03:28:01.046Z,12.68
2022-09-07T03:29:03.238Z,13.05
2022-09-07T03:30:09.763Z,12.50
2022-09-07T03:31:12.131Z,12.35
2022-09-07T03:32:14.405Z,12.80
2022-09-07T03:33:18.256Z,12.80
2022-09-07T03:34:20.496Z,12.60
2022-09-07T03:35:22.643Z,12.95
2022-09-07T03:36:24.969Z,12.07
2022-09-07T03:37:27.440Z,12.82
2022-09-07T03:38:30.841Z,12.95
2022-09-07T03:39:33.146Z,12.63
2022-09-07T03:40:35.386Z,12.93
2022-09-07T03:41:37.674Z,12.15
2022-09-07T03:42:40.552Z,12.63
2022-09-07T03:43:42.817Z,12.60
2022-09-07T03:44:45.401Z,12.20
2022-09-07T03:45:49.833Z,11.55
2022-09-07T03:46:52.031Z,12.52
2022-09-07T03:47:54.229Z,12.10
2022-09-07T03:48:56.838Z,11.95
2022-09-07T03:49:58.993Z,12.60
2022-09-07T03:51:03.976Z,12.05
2022-09-07T03:52:06.184Z,11.30
2022-09-07T03:53:08.473Z,12.25
2022-09-07T03:54:10.769Z,12.63
2022-09-07T03:55:13.001Z,12.90
2022-09-07T03:56:18.427Z,12.25
2022-09-07T03:57:20.597Z,12.98
2022-09-07T03:58:23.179Z,12.23
2022-09-07T03:59:25.775Z,12.40
2022-09-07T04:00:27.987Z,12.50
2022-09-07T04:01:30.282Z,13.52
2022-09-07T04:02:32.599Z,13.40
2022-09-07T04:03:35.250Z,13.07
2022-09-07T04:04:37.501Z,13.35
2022-09-07T04:05:39.690Z,13.85
2022-09-07T04:06:41.979Z,13.20
2022-09-07T04:07:45.123Z,13.68
2022-09-07T04:08:47.547Z,13.13
2022-09-07T04:09:54.737Z,14.55
2022-09-07T04:10:58.632Z,13.45
2022-09-07T04:12:00.895Z,13.27
2022-09-07T04:13:03.077Z,14.50
2022-09-07T04:14:06.139Z,13.60
2022-09-07T04:15:08.986Z,13.73
2022-09-07T04:16:14.801Z,13.10
2022-09-07T04:17:16.987Z,12.45
2022-09-07T04:18:19.773Z,12.48
2022-09-07T04:19:22.023Z,13.52
2022-09-07T04:20:24.505Z,12.38
2022-09-07T04:21:28.966Z,12.65
2022-09-07T04:22:31.128Z,12.90
2022-09-07T04:23:33.396Z,12.55
2022-09-07T04:24:37.460Z,12.45
2022-09-07T04:25:48.164Z,12.77
2022-09-07T04:26:51.201Z,12.43
2022-09-07T04:27:53.411Z,11.82
2022-09-07T04:28:56.021Z,12.43
2022-09-07T04:29:58.222Z,12.57
2022-09-07T04:31:02.166Z,12.50
2022-09-07T04:32:04.403Z,12.35
2022-09-07T04:33:06.642Z,12.90
2022-09-07T04:34:11.014Z,11.95
2022-09-07T04:35:14.690Z,12.30
2022-09-07T04:36:18.500Z,13.00
2022-09-07T04:37:20.667Z,11.68
2022-09-07T04:38:22.854Z,12.02
2022-09-07T04:39:25.052Z,11.90
2022-09-07T04:40:27.234Z,11.63
2022-09-07T04:41:31.312Z,11.73
2022-09-07T04:42:33.578Z,13.40
2022-09-07T04:43:38.163Z,12.57
2022-09-07T04:44:40.424Z,11.73
2022-09-07T04:45:42.665Z,12.05
2022-09-07T04:46:44.923Z,12.07
2022-09-07T04:47:51.084Z,11.65
2022-09-07T04:48:55.788Z,11.30
2022-09-07T04:49:58.130Z,11.65
2022-09-07T04:51:23.981Z,11.65
2022-09-07T04:52:26.202Z,11.68
2022-09-07T04:53:28.390Z,11.85
2022-09-07T04:54:31.123Z,11.70
2022-09-07T04:55:33.331Z,11.80
2022-09-07T04:56:35.578Z,12.52
2022-09-07T04:57:40.994Z,11.65
2022-09-07T04:58:43.303Z,11.73
2022-09-07T04:59:45.469Z,11.65
2022-09-07T05:00:47.695Z,12.02
2022-09-07T05:01:49.953Z,12.00
2022-09-07T05:02:52.150Z,11.80
2022-09-07T05:03:54.756Z,11.60
2022-09-07T05:05:02.002Z,12.02
2022-09-07T05:06:06.428Z,12.43
2022-09-07T05:07:08.671Z,12.10
2022-09-07T05:08:12.134Z,12.48
2022-09-07T05:09:14.318Z,11.90
2022-09-07T05:10:16.614Z,12.65
2022-09-07T05:11:24.978Z,11.77
2022-09-07T05:12:30.092Z,11.90
2022-09-07T05:13:32.484Z,12.15
2022-09-07T05:14:35.063Z,12.27
2022-09-07T05:15:37.257Z,12.23
2022-09-07T05:16:39.475Z,11.68
2022-09-07T05:17:41.730Z,12.00
2022-09-07T05:18:44.271Z,11.98
2022-09-07T05:19:48.142Z,11.80
2022-09-07T05:20:50.354Z,12.40
2022-09-07T05:21:52.530Z,12.68
2022-09-07T05:22:59.705Z,11.93
2022-09-07T05:24:02.285Z,12.35
2022-09-07T05:25:04.818Z,11.73
2022-09-07T05:26:07.811Z,12.05
2022-09-07T05:27:09.996Z,11.93
2022-09-07T05:28:17.300Z,12.07
2022-09-07T05:32:06.087Z,11.68
2022-09-07T05:33:08.359Z,12.02
2022-09-07T05:35:33.127Z,12.60
2022-09-07T05:36:36.079Z,11.68
2022-09-07T05:37:38.829Z,12.02
2022-09-07T05:38:41.123Z,12.32
2022-09-07T05:39:44.266Z,12.90
2022-09-07T05:40:47.147Z,11.98
2022-09-07T05:41:49.826Z,11.77
2022-09-07T05:42:52.026Z,12.77
2022-09-07T05:45:17.404Z,12.25
2022-09-07T05:46:20.673Z,12.40
2022-09-07T05:47:23.414Z,13.02
2022-09-07T05:48:25.592Z,11.90
2022-09-07T05:49:27.836Z,13.85
2022-09-07T05:50:30.060Z,12.57
2022-09-07T05:51:32.229Z,13.75
2022-09-07T05:52:35.343Z,13.45
2022-09-07T05:53:39.227Z,12.75
2022-09-07T05:54:41.502Z,12.25
2022-09-07T05:55:43.697Z,12.68
2022-09-07T05:56:45.876Z,12.35
2022-09-07T05:57:50.584Z,13.40
2022-09-07T05:58:52.811Z,11.52
2022-09-07T05:59:55.025Z,12.18
2022-09-07T06:01:00.823Z,13.05
2022-09-07T06:02:03.132Z,12.50
2022-09-07T06:03:05.549Z,12.23
2022-09-07T06:04:07.884Z,11.80
2022-09-07T06:05:13.831Z,11.80
2022-09-07T06:06:19.321Z,12.48
2022-09-07T06:07:22.677Z,15.50
2022-09-07T06:08:25.571Z,12.80
2022-09-07T06:09:30.497Z,12.38
2022-09-07T06:11:42.836Z,11.80
2022-09-07T06:12:49.045Z,12.35
2022-09-07T06:13:52.268Z,11.73
2022-09-07T06:14:54.501Z,12.70
2022-09-07T06:16:01.266Z,12.07
2022-09-07T06:17:03.471Z,12.18
2022-09-07T06:18:05.702Z,11.77
2022-09-07T06:19:08.486Z,11.98
2022-09-07T06:20:10.955Z,11.57
2022-09-07T06:21:19.044Z,12.27
2022-09-07T06:22:21.574Z,13.38
2022-09-07T06:23:23.787Z,12.38
2022-09-07T06:24:25.966Z,13.38
2022-09-07T06:25:28.151Z,14.85
2022-09-07T06:26:30.514Z,11.93
2022-09-07T06:27:32.789Z,11.48
2022-09-07T06:28:37.580Z,11.82
2022-09-07T06:29:39.791Z,11.95
2022-09-07T06:30:42.011Z,11.60
2022-09-07T06:33:06.447Z,11.75
2022-09-07T06:34:09.071Z,13.13
2022-09-07T06:35:11.645Z,12.63
2022-09-07T06:36:22.348Z,11.55
2022-09-07T06:37:24.550Z,11.05
2022-09-07T06:38:34.470Z,11.60
2022-09-07T06:39:37.374Z,13.45
2022-09-07T06:40:39.634Z,10.38
2022-09-07T06:43:06.401Z,13.38
2022-09-07T06:44:08.607Z,12.90
2022-09-07T06:45:11.733Z,11.57
2022-09-07T06:47:37.629Z,11.30
2022-09-07T06:48:44.200Z,11.43
2022-09-07T06:49:46.710Z,11.07
2022-09-07T06:51:03.851Z,11.82
2022-09-07T06:52:06.107Z,10.85
2022-09-07T06:55:53.125Z,11.85
2022-09-07T06:56:55.686Z,11.52
2022-09-07T06:57:57.917Z,11.18
2022-09-07T06:59:00.182Z,12.05
2022-09-07T07:00:03.536Z,11.32
2022-09-07T07:01:23.075Z,11.43
2022-09-07T07:02:25.341Z,11.13
2022-09-07T07:03:28.640Z,10.43
2022-09-07T07:04:31.097Z,11.02
2022-09-07T07:05:33.580Z,12.10
2022-09-07T07:06:37.384Z,11.15
2022-09-07T07:07:39.620Z,10.73
2022-09-07T07:08:42.115Z,11.77
2022-09-07T07:09:44.285Z,11.02
2022-09-07T07:10:46.607Z,11.02
2022-09-07T07:11:48.936Z,10.90
2022-09-07T07:12:53.209Z,11.00
2022-09-07T07:13:55.463Z,11.10
2022-09-07T07:14:57.717Z,10.52
2022-09-07T07:16:10.213Z,10.20
2022-09-07T07:17:12.998Z,11.27
2022-09-07T07:18:21.270Z,10.77
2022-09-07T07:19:23.904Z,12.20
2022-09-07T07:20:26.145Z,10.63
2022-09-07T07:21:38.243Z,10.10
2022-09-07T07:22:52.332Z,10.45
2022-09-07T07:23:54.559Z,9.93
2022-09-07T07:24:56.761Z,10.43
2022-09-07T07:26:12.630Z,10.38
2022-09-07T07:27:14.857Z,12.52
2022-09-07T07:29:39.225Z,10.18
2022-09-07T07:30:41.402Z,10.63
2022-09-07T07:31:43.940Z,11.27
2022-09-07T07:32:46.750Z,14.30
2022-09-07T07:33:49.235Z,11.02
2022-09-07T07:34:51.436Z,11.00
2022-09-07T07:35:53.613Z,11.10
2022-09-07T07:36:55.860Z,11.02
2022-09-07T07:40:43.007Z,10.43
2022-09-07T07:42:55.141Z,10.65
2022-09-07T07:44:00.563Z,10.52
2022-09-07T07:46:26.102Z,11.15
2022-09-07T07:47:28.866Z,9.85
2022-09-07T07:48:33.048Z,11.40
2022-09-07T07:49:35.215Z,14.55
2022-09-07T07:50:37.447Z,10.70
2022-09-07T07:54:24.118Z,11.00
2022-09-07T07:56:48.824Z,11.07
2022-09-07T07:57:50.942Z,11.70
2022-09-07T07:58:53.689Z,11.93
2022-09-07T07:59:58.007Z,11.43
2022-09-07T08:01:06.783Z,11.48
2022-09-07T08:02:15.205Z,11.40
2022-09-07T08:03:18.366Z,12.05
2022-09-07T08:04:20.502Z,11.23
2022-09-07T08:05:22.630Z,10.68
2022-09-07T08:06:24.772Z,12.02
2022-09-07T08:07:26.946Z,10.20
2022-09-07T08:08:30.313Z,10.90
2022-09-07T08:09:32.611Z,11.25
2022-09-07T08:10:35.766Z,9.88
2022-09-07T08:11:40.190Z,10.52
2022-09-07T08:12:42.354Z,11.48
2022-09-07T08:13:46.413Z,11.50
2022-09-07T08:14:48.690Z,11.35
2022-09-07T08:15:50.980Z,14.02
2022-09-07T08:16:53.214Z,11.70
2022-09-07T08:17:55.350Z,12.88
2022-09-07T08:18:58.209Z,11.95
2022-09-07T08:20:00.565Z,11.10
2022-09-07T08:21:05.103Z,11.02
2022-09-07T08:22:08.858Z,10.35
2022-09-07T08:23:11.827Z,10.80
2022-09-07T08:24:14.363Z,11.80
2022-09-07T08:25:17.585Z,11.50
2022-09-07T08:26:19.728Z,10.70
2022-09-07T08:27:21.912Z,11.60
2022-09-07T08:28:25.683Z,12.05
2022-09-07T08:29:31.302Z,10.52
2022-09-07T08:30:40.102Z,10.52
2022-09-07T08:31:42.727Z,11.52
2022-09-07T08:32:45.042Z,11.30
2022-09-07T08:33:47.244Z,11.38
2022-09-07T08:34:49.475Z,11.00
2022-09-07T08:36:00.100Z,10.48
2022-09-07T08:37:02.242Z,11.05
2022-09-07T08:38:04.424Z,11.23
2022-09-07T08:39:06.595Z,10.85
2022-09-07T08:40:18.183Z,10.75
2022-09-07T08:41:45.007Z,10.95
2022-09-07T08:43:03.185Z,10.15
2022-09-07T08:44:25.896Z,10.60
2022-09-07T08:45:34.317Z,10.55
2022-09-07T08:46:42.601Z,10.52
2022-09-07T08:47:53.157Z,10.38
2022-09-07T08:48:58.576Z,10.90
2022-09-07T08:50:09.850Z,10.90
2022-09-07T08:51:21.132Z,10.65
2022-09-07T08:52:37.448Z,11.05
2022-09-07T08:53:46.262Z,10.32
2022-09-07T08:55:01.167Z,10.00
2022-09-07T08:56:12.424Z,11.07
2022-09-07T08:57:21.115Z,10.18
2022-09-07T08:58:48.688Z,11.15
2022-09-07T09:00:04.992Z,10.73
2022-09-07T09:02:43.938Z,9.98
2022-09-07T09:05:25.637Z,10.15
2022-09-07T09:06:55.312Z,9.45
2022-09-07T09:08:03.984Z,9.40
2022-09-07T09:09:16.695Z,9.25
2022-09-07T09:10:43.345Z,9.82
2022-09-07T09:12:37.524Z,10.18
2022-09-07T09:14:13.778Z,9.65
2022-09-07T09:15:26.406Z,10.02
2022-09-07T09:16:35.802Z,9.52
2022-09-07T09:18:01.141Z,10.50
2022-09-07T09:19:40.693Z,10.32
2022-09-07T09:20:51.070Z,9.30
2022-09-07T09:22:07.767Z,9.85
2022-09-07T09:23:13.666Z,9.68
2022-09-07T09:24:19.194Z,9.55
2022-09-07T09:25:32.872Z,9.38
2022-09-07T09:26:35.658Z,9.38
2022-09-07T09:27:40.057Z,9.75
2022-09-07T09:28:42.231Z,10.32
2022-09-07T09:29:44.614Z,9.88
2022-09-07T09:30:48.240Z,9.52
2022-09-07T09:31:50.535Z,10.43
2022-09-07T09:33:13.957Z,9.38
2022-09-07T09:34:18.144Z,9.82
2022-09-07T09:35:32.666Z,10.35
2022-09-07T09:36:40.642Z,9.45
2022-09-07T09:37:43.925Z,9.45
2022-09-07T09:38:46.053Z,14.30
2022-09-07T09:40:00.647Z,10.50
2022-09-07T09:41:11.320Z,10.85
2022-09-07T09:42:13.427Z,10.00
2022-09-07T09:43:22.138Z,10.00
2022-09-07T09:44:31.332Z,10.15
2022-09-07T09:48:42.605Z,9.68
2022-09-07T09:49:45.624Z,9.95
2022-09-07T09:52:42.245Z,10.35
2022-09-07T09:53:54.562Z,9.95
2022-09-07T09:55:03.420Z,10.35
2022-09-07T09:56:14.927Z,9.95
2022-09-07T09:57:38.651Z,10.30
2022-09-07T10:00:27.929Z,9.95
2022-09-07T10:01:36.389Z,9.70
2022-09-07T10:04:32.110Z,9.95
2022-09-07T10:05:40.661Z,10.93
2022-09-07T10:06:50.555Z,10.10
2022-09-07T10:07:53.785Z,10.27
2022-09-07T10:09:02.032Z,10.10
2022-09-07T10:10:04.486Z,10.10
2022-09-07T10:11:09.242Z,10.57
2022-09-07T10:12:33.140Z,9.60
2022-09-07T10:13:57.909Z,9.63
2022-09-07T10:15:02.180Z,9.82
2022-09-07T10:16:07.169Z,9.85
2022-09-07T10:17:18.396Z,10.00
2022-09-07T10:18:29.088Z,9.50
2022-09-07T10:19:38.594Z,9.52
2022-09-07T10:20:40.811Z,9.35
2022-09-07T10:21:45.045Z,9.63
2022-09-07T10:22:53.345Z,9.57
2022-09-07T10:23:59.722Z,9.82
2022-09-07T10:25:04.313Z,9.25
2022-09-07T10:26:44.907Z,9.38
2022-09-07T10:27:47.028Z,9.07
2022-09-07T10:29:06.859Z,10.00
2022-09-07T10:30:16.186Z,10.23
2022-09-07T10:31:26.113Z,9.68
2022-09-07T10:33:00.795Z,9.77
2022-09-07T10:34:31.636Z,9.40
2022-09-07T10:35:43.386Z,9.80
2022-09-07T10:36:56.947Z,10.18
2022-09-07T10:38:17.445Z,9.00
2022-09-07T10:39:28.081Z,10.00
2022-09-07T10:40:36.127Z,9.40
2022-09-07T10:41:59.476Z,9.75
2022-09-07T10:43:23.323Z,9.68
2022-09-07T10:44:34.624Z,10.13
2022-09-07T10:45:45.423Z,9.95
2022-09-07T10:46:56.538Z,10.20
2022-09-07T10:48:24.298Z,9.55
2022-09-07T10:50:22.030Z,9.70
2022-09-07T10:51:17.685Z,9.40
2022-09-07T10:52:40.323Z,9.13
2022-09-07T10:55:38.881Z,9.55
2022-09-07T10:57:01.436Z,9.10
2022-09-07T10:59:01.490Z,9.75
2022-09-07T11:00:17.420Z,9.38
2022-09-07T11:01:39.151Z,9.38
2022-09-07T11:03:28.145Z,9.52
2022-09-07T11:04:38.566Z,9.30
2022-09-07T11:05:59.672Z,9.27
2022-09-07T11:07:21.194Z,9.68
2022-09-07T11:10:32.175Z,9.48
2022-09-07T11:13:08.313Z,10.23
2022-09-07T11:14:16.535Z,8.85
2022-09-07T11:15:27.545Z,10.43
2022-09-07T11:16:51.182Z,9.40
2022-09-07T11:18:15.025Z,10.32
2022-09-07T11:19:38.343Z,9.85
2022-09-07T11:20:55.563Z,10.32
2022-09-07T11:22:15.183Z,9.88
2022-09-07T11:23:23.539Z,8.45
2022-09-07T11:24:36.864Z,9.00
2022-09-07T11:26:07.560Z,8.95
2022-09-07T11:27:16.289Z,9.25
2022-09-07T11:28:25.816Z,9.43
2022-09-07T11:29:33.280Z,9.10
2022-09-07T11:30:46.163Z,9.90
2022-09-07T11:31:54.440Z,9.40
2022-09-07T11:32:57.311Z,9.32
2022-09-07T11:34:25.884Z,9.75
2022-09-07T11:35:35.280Z,9.35
2022-09-07T11:36:46.262Z,9.18
2022-09-07T11:37:59.587Z,9.32
2022-09-07T11:39:13.106Z,9.32
2022-09-07T11:40:30.620Z,10.02
2022-09-07T11:41:55.928Z,10.63
2022-09-07T11:43:19.936Z,9.13
2022-09-07T11:44:28.785Z,9.55
2022-09-07T11:45:43.431Z,9.60
2022-09-07T11:46:49.442Z,9.35
2022-09-07T11:48:00.725Z,9.48
2022-09-07T11:49:07.580Z,9.02
2022-09-07T11:50:24.273Z,9.32
2022-09-07T11:52:05.857Z,9.60
2022-09-07T11:53:17.839Z,9.73
2022-09-07T11:54:31.155Z,9.55
2022-09-07T11:55:38.450Z,9.40
2022-09-07T11:56:45.598Z,10.02
2022-09-07T11:58:10.143Z,10.05
2022-09-07T11:59:24.477Z,10.60
2022-09-07T12:01:06.621Z,9.80
2022-09-07T12:02:55.427Z,10.48
2022-09-07T12:04:02.875Z,9.00
2022-09-07T12:05:45.272Z,9.75
2022-09-07T12:07:03.404Z,9.98
2022-09-07T12:08:27.588Z,9.48
2022-09-07T12:09:53.655Z,10.10
2022-09-07T12:11:07.812Z,10.25
2022-09-07T12:12:31.427Z,9.70
2022-09-07T12:14:00.230Z,10.45
2022-09-07T12:15:21.396Z,12.00
2022-09-07T12:16:29.511Z,9.85
2022-09-07T12:17:45.021Z,10.07
2022-09-07T12:19:33.043Z,9.60
2022-09-07T12:20:46.178Z,9.73
2022-09-07T12:21:58.027Z,9.15
2022-09-07T12:23:21.062Z,9.40
2022-09-07T12:24:32.532Z,9.93
2022-09-07T12:25:35.326Z,9.38
2022-09-07T12:26:37.425Z,10.60
2022-09-07T12:27:40.603Z,10.40
2022-09-07T12:28:45.789Z,10.73
2022-09-07T12:30:11.960Z,9.77
2022-09-07T12:31:58.207Z,10.13
2022-09-07T12:33:04.622Z,9.82
2022-09-07T12:34:31.718Z,10.40
2022-09-07T12:35:33.818Z,10.82
2022-09-07T12:36:35.906Z,10.70
2022-09-07T12:37:40.204Z,9.75
2022-09-07T12:39:21.227Z,10.75
2022-09-07T12:40:29.823Z,9.93
2022-09-07T12:41:44.625Z,9.68
2022-09-07T12:42:48.826Z,9.40
2022-09-07T12:43:50.939Z,10.15
2022-09-07T12:45:30.234Z,10.40
2022-09-07T12:46:34.762Z,10.20
2022-09-07T12:47:38.654Z,10.20
2022-09-07T12:49:00.305Z,9.98
2022-09-07T12:50:13.934Z,9.85
2022-09-07T12:53:39.258Z,10.15
2022-09-07T12:55:23.570Z,9.70
2022-09-07T12:57:29.028Z,11.65
2022-09-07T12:58:28.302Z,10.18
2022-09-07T12:59:51.125Z,10.13
2022-09-07T13:01:17.281Z,10.23
2022-09-07T13:02:41.601Z,10.02
2022-09-07T13:04:27.833Z,10.10
2022-09-07T13:05:46.441Z,10.20
2022-09-07T13:07:20.970Z,10.10
2022-09-07T13:08:50.454Z,10.25
2022-09-07T13:09:57.969Z,10.80
2022-09-07T13:11:19.402Z,11.35
2022-09-07T13:14:04.694Z,11.93
2022-09-07T13:15:34.070Z,11.85
2022-09-07T13:18:01.128Z,12.60
2022-09-07T13:19:11.034Z,12.40
2022-09-07T13:20:23.755Z,12.63
2022-09-07T13:21:35.163Z,13.05
2022-09-07T13:22:37.310Z,13.05
2022-09-07T13:23:43.123Z,12.50
2022-09-07T13:24:56.433Z,12.95
2022-09-07T13:26:00.495Z,13.60
2022-09-07T13:27:05.759Z,11.23
2022-09-07T13:28:41.804Z,11.95
2022-09-07T13:29:58.751Z,12.40
2022-09-07T13:31:31.509Z,13.40
2022-09-07T13:33:57.262Z,10.43
2022-09-07T13:35:04.601Z,8.93
2022-09-07T13:36:19.597Z,10.32
2022-09-07T13:37:26.351Z,8.18
2022-09-07T13:38:30.712Z,8.10
2022-09-07T13:39:40.783Z,8.35
2022-09-07T13:40:47.095Z,10.63
2022-09-07T13:41:53.109Z,8.70
2022-09-07T13:42:57.088Z,11.30
2022-09-07T13:44:01.785Z,8.05
2022-09-07T13:45:07.425Z,11.93
2022-09-07T13:46:32.182Z,8.18
2022-09-07T13:48:01.742Z,8.90
2022-09-07T13:49:17.771Z,10.32
2022-09-07T13:50:51.765Z,11.55
2022-09-07T13:52:24.034Z,8.85
2022-09-07T13:53:47.482Z,8.00
2022-09-07T13:55:06.567Z,7.38
2022-09-07T13:56:36.285Z,7.88
2022-09-07T13:57:53.548Z,11.18
2022-09-07T13:58:56.586Z,7.13
2022-09-07T13:59:59.236Z,8.75
2022-09-07T14:01:06.330Z,9.05
2022-09-07T14:02:22.731Z,9.38
2022-09-07T14:03:28.103Z,10.02
2022-09-07T14:04:44.447Z,7.25
2022-09-07T14:05:46.791Z,7.97
2022-09-07T14:06:48.980Z,7.75
2022-09-07T14:07:51.144Z,6.28
2022-09-07T14:09:18.148Z,7.05
2022-09-07T14:10:23.150Z,6.18
2022-09-07T14:11:29.389Z,6.40
2022-09-07T14:12:31.585Z,6.53
2022-09-07T14:13:33.733Z,8.52
2022-09-07T14:14:36.213Z,6.18
2022-09-07T14:15:48.851Z,6.57
2022-09-07T14:17:04.499Z,9.38
2022-09-07T14:18:15.565Z,6.55
2022-09-07T14:19:40.537Z,6.55
2022-09-07T14:20:48.665Z,11.68
2022-09-07T14:21:58.410Z,9.95
2022-09-07T14:23:00.672Z,8.10
2022-09-07T14:24:07.480Z,6.95
2022-09-07T14:25:18.865Z,7.15
2022-09-07T14:26:23.309Z,8.00
2022-09-07T14:27:37.975Z,7.78
2022-09-07T14:28:41.094Z,10.10
2022-09-07T14:29:43.370Z,10.70
2022-09-07T14:30:45.568Z,12.77
2022-09-07T14:31:48.168Z,10.65
2022-09-07T14:32:53.005Z,8.57
2022-09-07T14:33:59.297Z,10.65
2022-09-07T14:35:03.388Z,9.75
2022-09-07T14:36:18.013Z,8.85
2022-09-07T14:37:29.515Z,10.15
2022-09-07T14:39:57.550Z,11.57
2022-09-07T14:41:02.418Z,9.98
2022-09-07T14:42:05.267Z,13.55
2022-09-07T14:43:37.693Z,11.00
2022-09-07T14:44:43.479Z,9.30
2022-09-07T14:45:45.760Z,11.65
2022-09-07T14:46:50.630Z,11.15
2022-09-07T14:47:57.176Z,11.50
2022-09-07T14:49:03.029Z,11.90
2022-09-07T14:50:06.304Z,10.77
2022-09-07T14:51:29.817Z,10.40
2022-09-07T14:52:44.143Z,13.25
2022-09-07T14:54:05.798Z,10.18
2022-09-07T14:55:32.479Z,10.95
2022-09-07T14:56:41.771Z,10.57
2022-09-07T14:57:44.239Z,10.82
2022-09-07T14:58:48.354Z,10.68
2022-09-07T14:59:50.845Z,10.68
2022-09-07T15:02:36.565Z,12.50
2022-09-07T15:03:38.721Z,13.27
2022-09-07T15:04:40.861Z,13.30
2022-09-07T15:05:47.810Z,10.98
2022-09-07T15:07:05.314Z,11.82
2022-09-07T15:08:20.437Z,12.30
2022-09-07T15:09:32.148Z,12.05
2022-09-07T15:10:41.738Z,12.18
2022-09-07T15:11:44.243Z,10.70
2022-09-07T15:12:47.737Z,11.27
2022-09-07T15:13:56.071Z,10.98
2022-09-07T15:14:58.271Z,10.43
2022-09-07T15:16:03.935Z,12.40
2022-09-07T15:18:55.776Z,10.50
2022-09-07T15:19:58.140Z,10.85
2022-09-07T15:21:00.260Z,11.30
2022-09-07T15:22:11.031Z,11.15
2022-09-07T15:23:16.722Z,11.30
2022-09-07T15:24:18.849Z,11.07
2022-09-07T15:25:21.069Z,11.50
2022-09-07T15:27:50.805Z,11.20
2022-09-07T15:29:08.743Z,11.95
2022-09-07T15:30:12.022Z,11.45
2022-09-07T15:32:39.382Z,10.93
2022-09-07T15:33:41.641Z,11.05
2022-09-07T15:34:44.050Z,10.68
2022-09-07T15:35:51.463Z,11.75
2022-09-07T15:36:56.142Z,10.65
2022-09-07T15:38:02.747Z,11.60
2022-09-07T15:39:07.351Z,11.65
2022-09-07T15:40:22.340Z,11.20
2022-09-07T15:41:24.779Z,10.75
2022-09-07T15:43:51.703Z,11.75
2022-09-07T15:44:53.862Z,10.90
2022-09-07T15:45:56.126Z,10.90
2022-09-07T15:48:22.634Z,9.65
2022-09-07T15:49:25.053Z,11.57
2022-09-07T15:50:28.893Z,12.82
2022-09-07T15:52:53.253Z,9.55
2022-09-07T15:55:18.119Z,8.43
2022-09-07T15:56:20.526Z,8.88
2022-09-07T15:58:44.977Z,9.10